sensor_id;sensor_type;location;lat;lon;timestamp;P1;durP1;ratioP1;P2;durP2;ratioP2
17488;SDS011;8861;52.644;4.734;2024-03-06T00:00:03;23.47;;;16.50;;
17488;SDS011;8861;52.644;4.734;2024-03-06T00:02:32;24.07;;;16.80;;
17488;SDS011;8861;52.644;4.734;2024-03-06T00:04:59;25.00;;;17.30;;
17488;SDS011;8861;52.644;4.734;2024-03-06T00:07:27;22.63;;;16.20;;
17488;SDS011;8861;52.644;4.734;2024-03-06T00:09:54;22.37;;;16.60;;
17488;SDS011;8861;52.644;4.734;2024-03-06T00:12:21;22.40;;;16.27;;
17488;SDS011;8861;52.644;4.734;2024-03-06T00:14:48;21.87;;;15.03;;
17488;SDS011;8861;52.644;4.734;2024-03-06T00:17:15;22.67;;;15.73;;
17488;SDS011;8861;52.644;4.734;2024-03-06T00:19:42;24.70;;;16.70;;
17488;SDS011;8861;52.644;4.734;2024-03-06T00:22:09;24.33;;;16.63;;
17488;SDS011;8861;52.644;4.734;2024-03-06T00:24:37;23.33;;;16.53;;
17488;SDS011;8861;52.644;4.734;2024-03-06T00:27:04;23.73;;;17.00;;
17488;SDS011;8861;52.644;4.734;2024-03-06T00:29:31;24.17;;;17.53;;
17488;SDS011;8861;52.644;4.734;2024-03-06T00:32:01;26.17;;;18.20;;
17488;SDS011;8861;52.644;4.734;2024-03-06T00:34:28;22.67;;;16.57;;
17488;SDS011;8861;52.644;4.734;2024-03-06T00:36:55;22.40;;;16.73;;
17488;SDS011;8861;52.644;4.734;2024-03-06T00:39:23;22.90;;;16.20;;
17488;SDS011;8861;52.644;4.734;2024-03-06T00:41:51;22.70;;;16.37;;
17488;SDS011;8861;52.644;4.734;2024-03-06T00:44:21;22.23;;;15.93;;
17488;SDS011;8861;52.644;4.734;2024-03-06T00:46:48;20.67;;;15.23;;
17488;SDS011;8861;52.644;4.734;2024-03-06T00:49:15;18.20;;;14.07;;
17488;SDS011;8861;52.644;4.734;2024-03-06T00:51:42;19.60;;;14.50;;
17488;SDS011;8861;52.644;4.734;2024-03-06T00:54:09;19.93;;;14.93;;
17488;SDS011;8861;52.644;4.734;2024-03-06T00:56:37;23.03;;;16.10;;
17488;SDS011;8861;52.644;4.734;2024-03-06T00:59:06;23.60;;;17.07;;
17488;SDS011;8861;52.644;4.734;2024-03-06T01:01:34;25.73;;;18.20;;
17488;SDS011;8861;52.644;4.734;2024-03-06T01:04:00;26.57;;;19.37;;
17488;SDS011;8861;52.644;4.734;2024-03-06T01:06:27;24.03;;;17.60;;
17488;SDS011;8861;52.644;4.734;2024-03-06T01:08:55;23.73;;;17.93;;
17488;SDS011;8861;52.644;4.734;2024-03-06T01:11:22;23.67;;;18.07;;
17488;SDS011;8861;52.644;4.734;2024-03-06T01:13:49;23.97;;;17.57;;
17488;SDS011;8861;52.644;4.734;2024-03-06T01:16:17;23.20;;;17.50;;
17488;SDS011;8861;52.644;4.734;2024-03-06T01:18:45;22.13;;;17.00;;
17488;SDS011;8861;52.644;4.734;2024-03-06T01:21:12;25.30;;;18.33;;
17488;SDS011;8861;52.644;4.734;2024-03-06T01:23:40;31.37;;;22.97;;
17488;SDS011;8861;52.644;4.734;2024-03-06T01:26:08;29.37;;;21.90;;
17488;SDS011;8861;52.644;4.734;2024-03-06T01:28:35;33.23;;;23.23;;
17488;SDS011;8861;52.644;4.734;2024-03-06T01:31:02;32.60;;;22.93;;
17488;SDS011;8861;52.644;4.734;2024-03-06T01:33:30;29.00;;;21.57;;
17488;SDS011;8861;52.644;4.734;2024-03-06T01:35:57;27.53;;;20.33;;
17488;SDS011;8861;52.644;4.734;2024-03-06T01:38:24;27.00;;;18.70;;
17488;SDS011;8861;52.644;4.734;2024-03-06T01:40:51;25.07;;;18.23;;
17488;SDS011;8861;52.644;4.734;2024-03-06T01:43:19;23.83;;;17.87;;
17488;SDS011;8861;52.644;4.734;2024-03-06T01:45:47;23.50;;;16.73;;
17488;SDS011;8861;52.644;4.734;2024-03-06T01:48:15;22.27;;;16.53;;
17488;SDS011;8861;52.644;4.734;2024-03-06T01:50:44;23.97;;;17.10;;
17488;SDS011;8861;52.644;4.734;2024-03-06T01:53:12;21.23;;;16.00;;
17488;SDS011;8861;52.644;4.734;2024-03-06T01:55:40;21.03;;;15.13;;
17488;SDS011;8861;52.644;4.734;2024-03-06T01:58:08;20.77;;;15.07;;
17488;SDS011;8861;52.644;4.734;2024-03-06T02:00:35;18.57;;;13.70;;
17488;SDS011;8861;52.644;4.734;2024-03-06T02:05:38;19.13;;;14.40;;
17488;SDS011;8861;52.644;4.734;2024-03-06T02:08:08;20.50;;;14.77;;
17488;SDS011;8861;52.644;4.734;2024-03-06T02:10:35;19.03;;;13.40;;
17488;SDS011;8861;52.644;4.734;2024-03-06T02:13:02;19.03;;;13.67;;
17488;SDS011;8861;52.644;4.734;2024-03-06T02:15:29;18.17;;;12.97;;
17488;SDS011;8861;52.644;4.734;2024-03-06T02:17:56;16.70;;;12.67;;
17488;SDS011;8861;52.644;4.734;2024-03-06T02:20:25;17.13;;;12.83;;
17488;SDS011;8861;52.644;4.734;2024-03-06T02:22:52;16.07;;;11.93;;
17488;SDS011;8861;52.644;4.734;2024-03-06T02:25:19;15.50;;;11.33;;
17488;SDS011;8861;52.644;4.734;2024-03-06T02:27:46;15.73;;;11.27;;
17488;SDS011;8861;52.644;4.734;2024-03-06T02:30:14;15.00;;;11.50;;
17488;SDS011;8861;52.644;4.734;2024-03-06T02:32:41;13.77;;;10.43;;
17488;SDS011;8861;52.644;4.734;2024-03-06T02:35:09;13.93;;;10.40;;
17488;SDS011;8861;52.644;4.734;2024-03-06T02:37:37;14.00;;;10.53;;
17488;SDS011;8861;52.644;4.734;2024-03-06T02:40:05;13.60;;;10.33;;
17488;SDS011;8861;52.644;4.734;2024-03-06T02:42:33;12.57;;;9.50;;
17488;SDS011;8861;52.644;4.734;2024-03-06T02:45:00;11.53;;;9.20;;
17488;SDS011;8861;52.644;4.734;2024-03-06T02:47:27;12.20;;;9.17;;
17488;SDS011;8861;52.644;4.734;2024-03-06T02:49:54;11.43;;;8.63;;
17488;SDS011;8861;52.644;4.734;2024-03-06T02:52:21;12.23;;;9.33;;
17488;SDS011;8861;52.644;4.734;2024-03-06T02:54:49;10.90;;;8.43;;
17488;SDS011;8861;52.644;4.734;2024-03-06T02:57:16;11.67;;;9.07;;
17488;SDS011;8861;52.644;4.734;2024-03-06T02:59:43;13.83;;;10.20;;
17488;SDS011;8861;52.644;4.734;2024-03-06T03:02:10;11.53;;;8.83;;
17488;SDS011;8861;52.644;4.734;2024-03-06T03:04:38;12.30;;;9.27;;
17488;SDS011;8861;52.644;4.734;2024-03-06T03:07:05;11.00;;;8.83;;
17488;SDS011;8861;52.644;4.734;2024-03-06T03:09:32;11.07;;;8.77;;
17488;SDS011;8861;52.644;4.734;2024-03-06T03:12:02;10.50;;;8.03;;
17488;SDS011;8861;52.644;4.734;2024-03-06T03:14:29;17.47;;;12.73;;
17488;SDS011;8861;52.644;4.734;2024-03-06T03:16:57;19.57;;;14.30;;
17488;SDS011;8861;52.644;4.734;2024-03-06T03:19:25;18.33;;;13.63;;
17488;SDS011;8861;52.644;4.734;2024-03-06T03:21:52;19.13;;;14.53;;
17488;SDS011;8861;52.644;4.734;2024-03-06T03:24:19;18.83;;;13.70;;
17488;SDS011;8861;52.644;4.734;2024-03-06T03:26:46;18.07;;;13.87;;
17488;SDS011;8861;52.644;4.734;2024-03-06T03:29:15;19.87;;;14.80;;
17488;SDS011;8861;52.644;4.734;2024-03-06T03:31:42;20.57;;;15.73;;
17488;SDS011;8861;52.644;4.734;2024-03-06T03:34:12;23.03;;;16.97;;
17488;SDS011;8861;52.644;4.734;2024-03-06T03:36:42;26.13;;;19.63;;
17488;SDS011;8861;52.644;4.734;2024-03-06T03:39:10;28.33;;;20.97;;
17488;SDS011;8861;52.644;4.734;2024-03-06T03:41:44;33.17;;;24.47;;
17488;SDS011;8861;52.644;4.734;2024-03-06T03:44:12;35.53;;;26.00;;
17488;SDS011;8861;52.644;4.734;2024-03-06T03:46:41;37.10;;;27.63;;
17488;SDS011;8861;52.644;4.734;2024-03-06T03:49:08;36.90;;;27.77;;
17488;SDS011;8861;52.644;4.734;2024-03-06T03:51:35;37.43;;;28.67;;
17488;SDS011;8861;52.644;4.734;2024-03-06T03:54:03;42.03;;;30.00;;
17488;SDS011;8861;52.644;4.734;2024-03-06T03:56:30;41.40;;;31.80;;
17488;SDS011;8861;52.644;4.734;2024-03-06T03:58:58;41.03;;;30.83;;
17488;SDS011;8861;52.644;4.734;2024-03-06T04:01:25;53.90;;;37.60;;
17488;SDS011;8861;52.644;4.734;2024-03-06T04:03:54;59.23;;;39.70;;
17488;SDS011;8861;52.644;4.734;2024-03-06T04:06:21;59.10;;;39.77;;
17488;SDS011;8861;52.644;4.734;2024-03-06T04:08:48;59.80;;;40.60;;
17488;SDS011;8861;52.644;4.734;2024-03-06T04:11:15;57.00;;;38.30;;
17488;SDS011;8861;52.644;4.734;2024-03-06T04:13:42;55.50;;;38.10;;
17488;SDS011;8861;52.644;4.734;2024-03-06T04:16:09;54.33;;;36.67;;
17488;SDS011;8861;52.644;4.734;2024-03-06T04:18:35;55.57;;;38.37;;
17488;SDS011;8861;52.644;4.734;2024-03-06T04:21:05;60.10;;;39.60;;
17488;SDS011;8861;52.644;4.734;2024-03-06T04:23:32;60.03;;;39.17;;
17488;SDS011;8861;52.644;4.734;2024-03-06T04:26:00;56.93;;;37.40;;
17488;SDS011;8861;52.644;4.734;2024-03-06T04:28:27;62.30;;;40.20;;
17488;SDS011;8861;52.644;4.734;2024-03-06T04:30:55;66.20;;;41.27;;
17488;SDS011;8861;52.644;4.734;2024-03-06T04:33:22;62.03;;;40.53;;
17488;SDS011;8861;52.644;4.734;2024-03-06T04:35:49;57.43;;;38.83;;
17488;SDS011;8861;52.644;4.734;2024-03-06T04:38:17;57.07;;;37.83;;
17488;SDS011;8861;52.644;4.734;2024-03-06T04:40:44;61.83;;;40.23;;
17488;SDS011;8861;52.644;4.734;2024-03-06T04:43:11;60.70;;;38.53;;
17488;SDS011;8861;52.644;4.734;2024-03-06T04:45:38;59.47;;;38.80;;
17488;SDS011;8861;52.644;4.734;2024-03-06T04:48:05;60.23;;;39.30;;
17488;SDS011;8861;52.644;4.734;2024-03-06T04:50:33;54.83;;;35.83;;
17488;SDS011;8861;52.644;4.734;2024-03-06T04:53:03;56.03;;;36.83;;
17488;SDS011;8861;52.644;4.734;2024-03-06T04:55:31;61.10;;;38.87;;
17488;SDS011;8861;52.644;4.734;2024-03-06T04:57:58;57.67;;;37.17;;
17488;SDS011;8861;52.644;4.734;2024-03-06T05:00:25;61.73;;;39.17;;
17488;SDS011;8861;52.644;4.734;2024-03-06T05:02:54;61.47;;;38.17;;
17488;SDS011;8861;52.644;4.734;2024-03-06T05:05:21;64.87;;;40.73;;
17488;SDS011;8861;52.644;4.734;2024-03-06T05:07:50;61.97;;;39.20;;
17488;SDS011;8861;52.644;4.734;2024-03-06T05:10:17;61.13;;;38.30;;
17488;SDS011;8861;52.644;4.734;2024-03-06T05:12:45;65.13;;;40.33;;
17488;SDS011;8861;52.644;4.734;2024-03-06T05:15:12;66.00;;;40.53;;
17488;SDS011;8861;52.644;4.734;2024-03-06T05:17:39;65.43;;;39.97;;
17488;SDS011;8861;52.644;4.734;2024-03-06T05:20:06;63.53;;;39.73;;
17488;SDS011;8861;52.644;4.734;2024-03-06T05:22:34;66.10;;;41.80;;
17488;SDS011;8861;52.644;4.734;2024-03-06T05:25:01;66.03;;;41.20;;
17488;SDS011;8861;52.644;4.734;2024-03-06T05:27:28;65.10;;;41.10;;
17488;SDS011;8861;52.644;4.734;2024-03-06T05:29:56;65.87;;;41.40;;
17488;SDS011;8861;52.644;4.734;2024-03-06T05:32:23;64.30;;;39.90;;
17488;SDS011;8861;52.644;4.734;2024-03-06T05:34:50;63.97;;;39.57;;
17488;SDS011;8861;52.644;4.734;2024-03-06T05:37:17;61.10;;;39.43;;
17488;SDS011;8861;52.644;4.734;2024-03-06T05:39:47;69.33;;;42.40;;
17488;SDS011;8861;52.644;4.734;2024-03-06T05:42:14;71.93;;;43.40;;
17488;SDS011;8861;52.644;4.734;2024-03-06T05:44:41;67.90;;;41.20;;
17488;SDS011;8861;52.644;4.734;2024-03-06T05:47:10;74.73;;;42.77;;
17488;SDS011;8861;52.644;4.734;2024-03-06T05:49:37;66.50;;;39.97;;
17488;SDS011;8861;52.644;4.734;2024-03-06T05:52:04;71.77;;;41.97;;
17488;SDS011;8861;52.644;4.734;2024-03-06T05:54:31;69.20;;;42.27;;
17488;SDS011;8861;52.644;4.734;2024-03-06T05:57:00;63.40;;;38.70;;
17488;SDS011;8861;52.644;4.734;2024-03-06T05:59:28;75.17;;;43.03;;
17488;SDS011;8861;52.644;4.734;2024-03-06T06:01:55;68.57;;;40.57;;
17488;SDS011;8861;52.644;4.734;2024-03-06T06:04:23;70.23;;;42.07;;
17488;SDS011;8861;52.644;4.734;2024-03-06T06:06:50;72.63;;;42.83;;
17488;SDS011;8861;52.644;4.734;2024-03-06T06:09:18;76.80;;;44.27;;
17488;SDS011;8861;52.644;4.734;2024-03-06T06:11:45;76.70;;;44.87;;
17488;SDS011;8861;52.644;4.734;2024-03-06T06:14:12;78.10;;;44.77;;
17488;SDS011;8861;52.644;4.734;2024-03-06T06:16:40;72.20;;;42.43;;
17488;SDS011;8861;52.644;4.734;2024-03-06T06:19:08;79.57;;;44.20;;
17488;SDS011;8861;52.644;4.734;2024-03-06T06:21:37;73.17;;;43.27;;
17488;SDS011;8861;52.644;4.734;2024-03-06T06:24:04;72.57;;;42.10;;
17488;SDS011;8861;52.644;4.734;2024-03-06T06:26:32;68.80;;;40.10;;
17488;SDS011;8861;52.644;4.734;2024-03-06T06:28:59;73.57;;;43.60;;
17488;SDS011;8861;52.644;4.734;2024-03-06T06:31:28;76.50;;;43.23;;
17488;SDS011;8861;52.644;4.734;2024-03-06T06:33:55;68.87;;;40.33;;
17488;SDS011;8861;52.644;4.734;2024-03-06T06:36:22;72.70;;;42.13;;
17488;SDS011;8861;52.644;4.734;2024-03-06T06:38:54;73.30;;;41.87;;
17488;SDS011;8861;52.644;4.734;2024-03-06T06:41:21;77.17;;;44.03;;
17488;SDS011;8861;52.644;4.734;2024-03-06T06:43:49;69.57;;;41.33;;
17488;SDS011;8861;52.644;4.734;2024-03-06T06:46:17;72.77;;;40.07;;
17488;SDS011;8861;52.644;4.734;2024-03-06T06:48:46;71.93;;;41.93;;
17488;SDS011;8861;52.644;4.734;2024-03-06T06:51:14;66.43;;;39.47;;
17488;SDS011;8861;52.644;4.734;2024-03-06T06:53:41;64.47;;;37.93;;
17488;SDS011;8861;52.644;4.734;2024-03-06T06:56:09;62.07;;;38.20;;
17488;SDS011;8861;52.644;4.734;2024-03-06T06:58:36;59.93;;;36.73;;
17488;SDS011;8861;52.644;4.734;2024-03-06T07:01:07;65.07;;;39.00;;
17488;SDS011;8861;52.644;4.734;2024-03-06T07:03:34;62.97;;;37.90;;
17488;SDS011;8861;52.644;4.734;2024-03-06T07:06:01;64.00;;;38.57;;
17488;SDS011;8861;52.644;4.734;2024-03-06T07:08:29;65.30;;;40.00;;
17488;SDS011;8861;52.644;4.734;2024-03-06T07:10:56;74.50;;;43.50;;
17488;SDS011;8861;52.644;4.734;2024-03-06T07:13:25;67.93;;;42.23;;
17488;SDS011;8861;52.644;4.734;2024-03-06T07:15:52;63.40;;;39.63;;
17488;SDS011;8861;52.644;4.734;2024-03-06T07:18:19;70.93;;;41.97;;
17488;SDS011;8861;52.644;4.734;2024-03-06T07:20:46;69.43;;;42.33;;
17488;SDS011;8861;52.644;4.734;2024-03-06T07:23:13;72.63;;;43.27;;
17488;SDS011;8861;52.644;4.734;2024-03-06T07:25:40;72.77;;;44.60;;
17488;SDS011;8861;52.644;4.734;2024-03-06T07:28:07;72.43;;;43.83;;
17488;SDS011;8861;52.644;4.734;2024-03-06T07:30:35;65.40;;;40.20;;
17488;SDS011;8861;52.644;4.734;2024-03-06T07:33:02;60.87;;;37.87;;
17488;SDS011;8861;52.644;4.734;2024-03-06T07:35:30;60.50;;;37.50;;
17488;SDS011;8861;52.644;4.734;2024-03-06T07:37:57;62.40;;;40.13;;
17488;SDS011;8861;52.644;4.734;2024-03-06T07:40:24;62.37;;;38.13;;
17488;SDS011;8861;52.644;4.734;2024-03-06T07:42:51;59.30;;;37.23;;
17488;SDS011;8861;52.644;4.734;2024-03-06T07:45:18;56.77;;;36.23;;
17488;SDS011;8861;52.644;4.734;2024-03-06T07:47:47;55.90;;;34.07;;
17488;SDS011;8861;52.644;4.734;2024-03-06T07:50:14;57.93;;;36.83;;
17488;SDS011;8861;52.644;4.734;2024-03-06T07:52:44;58.17;;;36.77;;
17488;SDS011;8861;52.644;4.734;2024-03-06T07:55:11;57.60;;;35.53;;
17488;SDS011;8861;52.644;4.734;2024-03-06T07:57:38;55.87;;;35.50;;
17488;SDS011;8861;52.644;4.734;2024-03-06T08:00:05;53.63;;;33.77;;
17488;SDS011;8861;52.644;4.734;2024-03-06T08:02:39;48.47;;;31.30;;
17488;SDS011;8861;52.644;4.734;2024-03-06T08:05:09;48.23;;;30.97;;
17488;SDS011;8861;52.644;4.734;2024-03-06T08:07:37;48.17;;;31.30;;
17488;SDS011;8861;52.644;4.734;2024-03-06T08:10:07;45.97;;;29.63;;
17488;SDS011;8861;52.644;4.734;2024-03-06T08:12:38;48.43;;;31.13;;
17488;SDS011;8861;52.644;4.734;2024-03-06T08:15:05;50.60;;;31.53;;
17488;SDS011;8861;52.644;4.734;2024-03-06T08:17:34;51.97;;;32.50;;
17488;SDS011;8861;52.644;4.734;2024-03-06T08:20:01;49.57;;;31.23;;
17488;SDS011;8861;52.644;4.734;2024-03-06T08:22:34;51.60;;;32.10;;
17488;SDS011;8861;52.644;4.734;2024-03-06T08:25:04;47.83;;;30.60;;
17488;SDS011;8861;52.644;4.734;2024-03-06T08:27:32;45.73;;;29.50;;
17488;SDS011;8861;52.644;4.734;2024-03-06T08:30:00;48.37;;;30.40;;
17488;SDS011;8861;52.644;4.734;2024-03-06T08:32:29;61.20;;;36.40;;
17488;SDS011;8861;52.644;4.734;2024-03-06T08:34:56;59.53;;;35.07;;
17488;SDS011;8861;52.644;4.734;2024-03-06T08:37:24;55.90;;;33.90;;
17488;SDS011;8861;52.644;4.734;2024-03-06T08:39:53;54.13;;;33.50;;
17488;SDS011;8861;52.644;4.734;2024-03-06T08:42:20;54.47;;;33.47;;
17488;SDS011;8861;52.644;4.734;2024-03-06T08:44:47;50.10;;;31.40;;
17488;SDS011;8861;52.644;4.734;2024-03-06T08:47:14;52.33;;;32.67;;
17488;SDS011;8861;52.644;4.734;2024-03-06T08:49:41;46.70;;;30.73;;
17488;SDS011;8861;52.644;4.734;2024-03-06T08:52:08;40.70;;;27.50;;
17488;SDS011;8861;52.644;4.734;2024-03-06T08:54:36;42.77;;;27.50;;
17488;SDS011;8861;52.644;4.734;2024-03-06T08:57:04;48.07;;;30.93;;
17488;SDS011;8861;52.644;4.734;2024-03-06T08:59:31;46.13;;;29.77;;
17488;SDS011;8861;52.644;4.734;2024-03-06T09:01:58;47.43;;;30.60;;
17488;SDS011;8861;52.644;4.734;2024-03-06T09:04:39;44.50;;;29.23;;
17488;SDS011;8861;52.644;4.734;2024-03-06T09:07:06;47.97;;;30.97;;
17488;SDS011;8861;52.644;4.734;2024-03-06T09:09:33;49.47;;;32.13;;
17488;SDS011;8861;52.644;4.734;2024-03-06T09:12:00;52.00;;;32.87;;
17488;SDS011;8861;52.644;4.734;2024-03-06T09:14:31;58.67;;;36.83;;
17488;SDS011;8861;52.644;4.734;2024-03-06T09:16:59;58.63;;;37.53;;
17488;SDS011;8861;52.644;4.734;2024-03-06T09:19:26;55.93;;;36.27;;
17488;SDS011;8861;52.644;4.734;2024-03-06T09:21:53;54.03;;;35.43;;
17488;SDS011;8861;52.644;4.734;2024-03-06T09:24:20;48.50;;;32.53;;
17488;SDS011;8861;52.644;4.734;2024-03-06T09:26:48;51.57;;;33.77;;
17488;SDS011;8861;52.644;4.734;2024-03-06T09:29:15;49.57;;;33.30;;
17488;SDS011;8861;52.644;4.734;2024-03-06T09:31:44;46.90;;;31.17;;
17488;SDS011;8861;52.644;4.734;2024-03-06T09:34:13;45.60;;;30.90;;
17488;SDS011;8861;52.644;4.734;2024-03-06T09:36:41;50.87;;;32.17;;
17488;SDS011;8861;52.644;4.734;2024-03-06T09:39:12;43.80;;;29.87;;
17488;SDS011;8861;52.644;4.734;2024-03-06T09:41:41;40.97;;;27.57;;
17488;SDS011;8861;52.644;4.734;2024-03-06T09:44:09;60.33;;;37.03;;
17488;SDS011;8861;52.644;4.734;2024-03-06T09:46:36;52.67;;;34.07;;
17488;SDS011;8861;52.644;4.734;2024-03-06T09:49:05;47.67;;;31.07;;
17488;SDS011;8861;52.644;4.734;2024-03-06T09:51:35;43.13;;;28.43;;
17488;SDS011;8861;52.644;4.734;2024-03-06T09:54:03;45.83;;;30.93;;
17488;SDS011;8861;52.644;4.734;2024-03-06T09:56:34;44.50;;;29.30;;
17488;SDS011;8861;52.644;4.734;2024-03-06T09:59:01;48.33;;;31.40;;
17488;SDS011;8861;52.644;4.734;2024-03-06T10:01:29;47.07;;;30.10;;
17488;SDS011;8861;52.644;4.734;2024-03-06T10:03:57;43.77;;;29.47;;
17488;SDS011;8861;52.644;4.734;2024-03-06T10:06:26;41.60;;;28.47;;
17488;SDS011;8861;52.644;4.734;2024-03-06T10:09:02;44.27;;;29.73;;
17488;SDS011;8861;52.644;4.734;2024-03-06T10:11:38;46.63;;;31.73;;
17488;SDS011;8861;52.644;4.734;2024-03-06T10:14:07;41.33;;;27.97;;
17488;SDS011;8861;52.644;4.734;2024-03-06T10:16:35;44.83;;;29.57;;
17488;SDS011;8861;52.644;4.734;2024-03-06T10:19:14;53.23;;;33.87;;
17488;SDS011;8861;52.644;4.734;2024-03-06T10:21:46;45.43;;;29.97;;
17488;SDS011;8861;52.644;4.734;2024-03-06T10:24:16;41.73;;;28.73;;
17488;SDS011;8861;52.644;4.734;2024-03-06T10:26:45;41.37;;;28.53;;
17488;SDS011;8861;52.644;4.734;2024-03-06T10:29:14;41.87;;;28.50;;
17488;SDS011;8861;52.644;4.734;2024-03-06T10:31:47;38.10;;;25.67;;
17488;SDS011;8861;52.644;4.734;2024-03-06T10:34:15;39.23;;;26.57;;
17488;SDS011;8861;52.644;4.734;2024-03-06T10:36:43;36.93;;;25.97;;
17488;SDS011;8861;52.644;4.734;2024-03-06T10:39:11;41.93;;;28.67;;
17488;SDS011;8861;52.644;4.734;2024-03-06T10:41:40;40.47;;;26.73;;
17488;SDS011;8861;52.644;4.734;2024-03-06T10:44:08;44.37;;;28.80;;
17488;SDS011;8861;52.644;4.734;2024-03-06T10:46:38;44.67;;;29.67;;
17488;SDS011;8861;52.644;4.734;2024-03-06T10:49:09;42.13;;;28.37;;
17488;SDS011;8861;52.644;4.734;2024-03-06T10:51:37;38.83;;;26.63;;
17488;SDS011;8861;52.644;4.734;2024-03-06T10:54:08;38.27;;;27.13;;
17488;SDS011;8861;52.644;4.734;2024-03-06T10:56:36;45.60;;;29.83;;
17488;SDS011;8861;52.644;4.734;2024-03-06T10:59:07;39.67;;;27.00;;
17488;SDS011;8861;52.644;4.734;2024-03-06T11:01:36;44.20;;;29.37;;
17488;SDS011;8861;52.644;4.734;2024-03-06T11:04:05;58.33;;;36.70;;
17488;SDS011;8861;52.644;4.734;2024-03-06T11:06:32;51.73;;;33.90;;
17488;SDS011;8861;52.644;4.734;2024-03-06T11:09:00;66.43;;;40.50;;
17488;SDS011;8861;52.644;4.734;2024-03-06T11:11:30;59.00;;;36.47;;
17488;SDS011;8861;52.644;4.734;2024-03-06T11:14:00;54.33;;;35.80;;
17488;SDS011;8861;52.644;4.734;2024-03-06T11:16:28;51.33;;;33.60;;
17488;SDS011;8861;52.644;4.734;2024-03-06T11:19:04;51.67;;;34.53;;
17488;SDS011;8861;52.644;4.734;2024-03-06T11:21:32;56.17;;;36.10;;
17488;SDS011;8861;52.644;4.734;2024-03-06T11:24:12;60.97;;;38.30;;
17488;SDS011;8861;52.644;4.734;2024-03-06T11:26:48;63.33;;;39.60;;
17488;SDS011;8861;52.644;4.734;2024-03-06T11:29:16;59.53;;;36.83;;
17488;SDS011;8861;52.644;4.734;2024-03-06T11:32:00;51.67;;;33.10;;
17488;SDS011;8861;52.644;4.734;2024-03-06T11:34:29;48.97;;;32.73;;
17488;SDS011;8861;52.644;4.734;2024-03-06T11:36:56;51.40;;;32.97;;
17488;SDS011;8861;52.644;4.734;2024-03-06T11:39:24;48.30;;;32.57;;
17488;SDS011;8861;52.644;4.734;2024-03-06T11:41:56;45.17;;;30.33;;
17488;SDS011;8861;52.644;4.734;2024-03-06T11:44:23;49.57;;;33.20;;
17488;SDS011;8861;52.644;4.734;2024-03-06T11:46:56;47.33;;;32.37;;
17488;SDS011;8861;52.644;4.734;2024-03-06T11:49:25;60.60;;;37.87;;
17488;SDS011;8861;52.644;4.734;2024-03-06T11:51:55;55.13;;;36.77;;
17488;SDS011;8861;52.644;4.734;2024-03-06T11:54:22;54.53;;;34.60;;
17488;SDS011;8861;52.644;4.734;2024-03-06T11:56:52;54.67;;;34.67;;
17488;SDS011;8861;52.644;4.734;2024-03-06T11:59:22;56.07;;;36.03;;
17488;SDS011;8861;52.644;4.734;2024-03-06T12:01:50;54.30;;;35.77;;
17488;SDS011;8861;52.644;4.734;2024-03-06T12:04:18;58.97;;;38.47;;
17488;SDS011;8861;52.644;4.734;2024-03-06T12:06:45;58.43;;;36.83;;
17488;SDS011;8861;52.644;4.734;2024-03-06T12:09:13;50.90;;;33.50;;
17488;SDS011;8861;52.644;4.734;2024-03-06T12:11:40;52.83;;;34.17;;
17488;SDS011;8861;52.644;4.734;2024-03-06T12:14:12;54.87;;;35.43;;
17488;SDS011;8861;52.644;4.734;2024-03-06T12:16:43;55.57;;;35.90;;
17488;SDS011;8861;52.644;4.734;2024-03-06T12:19:10;62.70;;;40.30;;
17488;SDS011;8861;52.644;4.734;2024-03-06T12:21:37;57.33;;;37.97;;
17488;SDS011;8861;52.644;4.734;2024-03-06T12:24:06;61.77;;;38.87;;
17488;SDS011;8861;52.644;4.734;2024-03-06T12:26:34;58.10;;;37.00;;
17488;SDS011;8861;52.644;4.734;2024-03-06T12:29:05;58.97;;;37.50;;
17488;SDS011;8861;52.644;4.734;2024-03-06T12:31:34;55.50;;;36.20;;
17488;SDS011;8861;52.644;4.734;2024-03-06T12:34:03;52.60;;;34.40;;
17488;SDS011;8861;52.644;4.734;2024-03-06T12:36:31;52.57;;;34.23;;
17488;SDS011;8861;52.644;4.734;2024-03-06T12:39:00;52.60;;;34.73;;
17488;SDS011;8861;52.644;4.734;2024-03-06T12:41:28;57.67;;;37.43;;
17488;SDS011;8861;52.644;4.734;2024-03-06T12:43:55;52.57;;;34.60;;
17488;SDS011;8861;52.644;4.734;2024-03-06T12:46:22;48.40;;;32.77;;
17488;SDS011;8861;52.644;4.734;2024-03-06T12:48:51;51.73;;;34.53;;
17488;SDS011;8861;52.644;4.734;2024-03-06T12:51:22;44.60;;;30.73;;
17488;SDS011;8861;52.644;4.734;2024-03-06T12:53:49;44.40;;;30.70;;
17488;SDS011;8861;52.644;4.734;2024-03-06T12:56:16;47.97;;;32.17;;
17488;SDS011;8861;52.644;4.734;2024-03-06T12:58:44;44.30;;;30.77;;
17488;SDS011;8861;52.644;4.734;2024-03-06T13:01:11;45.37;;;31.10;;
17488;SDS011;8861;52.644;4.734;2024-03-06T13:03:38;43.90;;;30.23;;
17488;SDS011;8861;52.644;4.734;2024-03-06T13:06:05;43.03;;;30.27;;
17488;SDS011;8861;52.644;4.734;2024-03-06T13:08:33;43.80;;;30.20;;
17488;SDS011;8861;52.644;4.734;2024-03-06T13:11:01;41.30;;;28.67;;
17488;SDS011;8861;52.644;4.734;2024-03-06T13:13:28;40.53;;;27.83;;
17488;SDS011;8861;52.644;4.734;2024-03-06T13:15:57;38.80;;;27.40;;
17488;SDS011;8861;52.644;4.734;2024-03-06T13:18:24;36.97;;;25.53;;
17488;SDS011;8861;52.644;4.734;2024-03-06T13:20:51;35.10;;;24.80;;
17488;SDS011;8861;52.644;4.734;2024-03-06T13:23:19;33.13;;;24.43;;
17488;SDS011;8861;52.644;4.734;2024-03-06T13:25:47;33.83;;;25.07;;
17488;SDS011;8861;52.644;4.734;2024-03-06T13:28:14;35.10;;;25.20;;
17488;SDS011;8861;52.644;4.734;2024-03-06T13:30:41;31.63;;;22.97;;
17488;SDS011;8861;52.644;4.734;2024-03-06T13:33:08;34.00;;;23.80;;
17488;SDS011;8861;52.644;4.734;2024-03-06T13:35:36;30.30;;;22.43;;
17488;SDS011;8861;52.644;4.734;2024-03-06T13:38:03;30.70;;;22.17;;
17488;SDS011;8861;52.644;4.734;2024-03-06T13:40:30;34.83;;;24.30;;
17488;SDS011;8861;52.644;4.734;2024-03-06T13:42:58;30.30;;;21.90;;
17488;SDS011;8861;52.644;4.734;2024-03-06T13:45:25;25.83;;;19.77;;
17488;SDS011;8861;52.644;4.734;2024-03-06T13:47:53;27.77;;;20.33;;
17488;SDS011;8861;52.644;4.734;2024-03-06T13:50:20;29.37;;;21.20;;
17488;SDS011;8861;52.644;4.734;2024-03-06T13:52:50;30.40;;;21.03;;
17488;SDS011;8861;52.644;4.734;2024-03-06T13:55:17;28.70;;;20.13;;
17488;SDS011;8861;52.644;4.734;2024-03-06T13:57:44;27.30;;;19.93;;
17488;SDS011;8861;52.644;4.734;2024-03-06T14:00:13;30.47;;;21.77;;
17488;SDS011;8861;52.644;4.734;2024-03-06T14:02:43;28.43;;;20.67;;
17488;SDS011;8861;52.644;4.734;2024-03-06T14:05:10;26.83;;;19.73;;
17488;SDS011;8861;52.644;4.734;2024-03-06T14:07:38;26.30;;;19.40;;
17488;SDS011;8861;52.644;4.734;2024-03-06T14:10:06;23.83;;;17.40;;
17488;SDS011;8861;52.644;4.734;2024-03-06T14:12:34;21.77;;;16.33;;
17488;SDS011;8861;52.644;4.734;2024-03-06T14:15:02;24.43;;;17.77;;
17488;SDS011;8861;52.644;4.734;2024-03-06T14:17:31;24.20;;;18.03;;
17488;SDS011;8861;52.644;4.734;2024-03-06T14:19:58;31.87;;;21.27;;
17488;SDS011;8861;52.644;4.734;2024-03-06T14:22:25;37.87;;;25.77;;
17488;SDS011;8861;52.644;4.734;2024-03-06T14:24:52;35.90;;;25.53;;
17488;SDS011;8861;52.644;4.734;2024-03-06T14:27:19;33.73;;;23.63;;
17488;SDS011;8861;52.644;4.734;2024-03-06T14:29:47;34.87;;;23.77;;
17488;SDS011;8861;52.644;4.734;2024-03-06T14:32:14;33.40;;;23.03;;
17488;SDS011;8861;52.644;4.734;2024-03-06T14:34:42;30.13;;;21.20;;
17488;SDS011;8861;52.644;4.734;2024-03-06T14:37:09;31.80;;;22.17;;
17488;SDS011;8861;52.644;4.734;2024-03-06T14:39:37;30.27;;;20.90;;
17488;SDS011;8861;52.644;4.734;2024-03-06T14:42:05;32.63;;;22.33;;